createdAt,value
2023-01-01T00:02:11.292Z,10.50
2023-01-01T00:04:38.595Z,10.60
2023-01-01T00:07:05.808Z,10.50
2023-01-01T00:09:51.780Z,10.50
2023-01-01T00:12:19.039Z,10.40
2023-01-01T00:14:46.339Z,10.40
2023-01-01T00:17:13.564Z,10.40
2023-01-01T00:19:40.862Z,10.40
2023-01-01T00:22:43.798Z,10.40
2023-01-01T00:24:55.339Z,10.40
2023-01-01T00:27:22.555Z,10.40
2023-01-01T00:29:49.783Z,10.30
2023-01-01T00:32:22.429Z,10.30
2023-01-01T00:34:50.418Z,10.30
2023-01-01T00:37:18.244Z,10.40
2023-01-01T00:39:45.597Z,10.40
2023-01-01T00:42:12.826Z,10.30
2023-01-01T00:44:40.037Z,10.40
2023-01-01T00:47:07.284Z,10.30
2023-01-01T00:49:34.488Z,10.30
2023-01-01T00:52:01.711Z,10.30
2023-01-01T00:54:29.055Z,10.30
2023-01-01T00:56:57.489Z,10.30
2023-01-01T00:59:28.655Z,10.30
2023-01-01T01:01:56.546Z,10.40
2023-01-01T01:04:23.889Z,10.40
2023-01-01T01:06:51.153Z,10.30
2023-01-01T01:09:18.358Z,10.30
2023-01-01T01:11:45.581Z,10.20
2023-01-01T01:14:14.802Z,10.10
2023-01-01T01:16:42.213Z,10.10
2023-01-01T01:19:14.671Z,10.00
2023-01-01T01:21:41.980Z,10.00
2023-01-01T01:24:09.864Z,10.00
2023-01-01T01:26:37.287Z,10.00
2023-01-01T01:29:04.481Z,10.00
2023-01-01T01:31:33.126Z,10.00
2023-01-01T01:34:00.619Z,10.00
2023-01-01T01:36:27.968Z,10.10
2023-01-01T01:38:55.413Z,10.10
2023-01-01T01:41:28.660Z,10.10
2023-01-01T01:44:00.980Z,10.10
2023-01-01T01:46:43.641Z,10.10
2023-01-01T01:49:20.243Z,10.10
2023-01-01T01:51:47.446Z,10.00
2023-01-01T01:54:16.596Z,10.00
2023-01-01T01:56:52.488Z,10.00
2023-01-01T01:59:19.717Z,10.00
2023-01-01T02:01:46.974Z,10.00
2023-01-01T02:04:14.275Z,10.00
2023-01-01T02:06:41.523Z,10.10
2023-01-01T02:09:08.896Z,10.00
2023-01-01T02:11:36.080Z,10.00
2023-01-01T02:14:03.612Z,10.00
2023-01-01T02:16:37.859Z,10.10
2023-01-01T02:19:08.097Z,10.10
2023-01-01T02:21:52.519Z,10.10
2023-01-01T02:24:31.274Z,10.00
2023-01-01T02:27:11.600Z,10.10
2023-01-01T02:29:43.438Z,10.00
2023-01-01T02:32:13.174Z,10.00
2023-01-01T02:34:46.891Z,10.00
2023-01-01T02:37:15.178Z,10.00
2023-01-01T02:39:48.161Z,10.00
2023-01-01T02:42:15.352Z,9.90
2023-01-01T02:44:44.718Z,10.00
2023-01-01T02:47:15.076Z,9.90
2023-01-01T02:50:24.192Z,9.90
2023-01-01T02:52:59.119Z,9.80
2023-01-01T02:55:37.249Z,9.80
2023-01-01T02:58:46.580Z,9.90
2023-01-01T03:01:37.371Z,10.00
2023-01-01T03:04:12.961Z,10.00
2023-01-01T03:06:52.288Z,10.00
2023-01-01T03:09:42.775Z,10.00
2023-01-01T03:12:25.325Z,9.90
2023-01-01T03:15:03.307Z,10.00
2023-01-01T03:17:57.645Z,9.90
2023-01-01T03:20:27.820Z,9.90
2023-01-01T03:22:57.649Z,9.90
2023-01-01T03:25:27.063Z,9.80
2023-01-01T03:28:06.522Z,9.70
2023-01-01T03:30:33.724Z,9.60
2023-01-01T03:33:03.847Z,9.60
2023-01-01T03:35:45.856Z,9.50
2023-01-01T03:38:23.606Z,9.50
2023-01-01T03:40:52.733Z,9.40
2023-01-01T03:43:41.839Z,9.40
2023-01-01T03:46:09.463Z,9.30
2023-01-01T03:49:02.734Z,9.20
2023-01-01T03:51:59.126Z,9.10
2023-01-01T03:54:47.926Z,9.10
2023-01-01T03:57:23.981Z,9.10
2023-01-01T04:00:10.086Z,9.00
2023-01-01T04:02:42.698Z,8.90
2023-01-01T04:05:10.929Z,8.90
2023-01-01T04:07:38.149Z,8.90
2023-01-01T04:10:17.141Z,8.80
2023-01-01T04:12:49.496Z,8.80
2023-01-01T04:15:18.043Z,8.60
2023-01-01T04:17:45.400Z,8.60
2023-01-01T04:20:12.653Z,8.50
2023-01-01T04:22:40.343Z,8.50
2023-01-01T04:25:08.359Z,8.50
2023-01-01T04:27:35.684Z,8.50
2023-01-01T04:30:04.282Z,8.50
2023-01-01T04:32:31.485Z,8.60
2023-01-01T04:34:58.738Z,8.50
2023-01-01T04:37:25.961Z,8.40
2023-01-01T04:39:53.211Z,8.50
2023-01-01T04:42:20.422Z,8.50
2023-01-01T04:44:47.611Z,8.40
2023-01-01T04:47:14.825Z,8.40
2023-01-01T04:49:42.023Z,8.40
2023-01-01T04:52:09.245Z,8.50
2023-01-01T04:54:36.439Z,8.40
2023-01-01T04:57:03.692Z,8.40
2023-01-01T04:59:31.137Z,8.50
2023-01-01T05:01:58.662Z,8.50
2023-01-01T05:04:26.373Z,8.40
2023-01-01T05:06:53.599Z,8.40
2023-01-01T05:09:20.801Z,8.40
2023-01-01T05:11:47.988Z,8.40
2023-01-01T05:14:15.216Z,8.50
2023-01-01T05:16:42.482Z,8.50
2023-01-01T05:19:10.585Z,8.50
2023-01-01T05:21:39.549Z,8.40
2023-01-01T05:24:08.258Z,8.50
2023-01-01T05:26:37.634Z,8.40
2023-01-01T05:29:07.862Z,8.40
2023-01-01T05:31:40.856Z,8.50
2023-01-01T05:36:38.345Z,8.40
2023-01-01T05:39:06.838Z,8.40
2023-01-01T05:41:36.254Z,8.50
2023-01-01T05:44:05.141Z,8.50
2023-01-01T05:46:32.408Z,8.50
2023-01-01T05:48:59.834Z,8.50
2023-01-01T05:51:27.967Z,8.40
2023-01-01T05:53:55.383Z,8.40
2023-01-01T05:56:22.804Z,8.40
2023-01-01T05:58:50.031Z,8.40
2023-01-01T06:01:18.465Z,8.40
2023-01-01T06:03:45.767Z,8.40
2023-01-01T06:06:18.022Z,8.40
2023-01-01T06:08:52.200Z,8.40
2023-01-01T06:11:19.755Z,8.40
2023-01-01T06:13:47.212Z,8.40
2023-01-01T06:16:14.545Z,8.40
2023-01-01T06:18:41.784Z,8.40
2023-01-01T06:21:10.830Z,8.40
2023-01-01T06:23:38.181Z,8.40
2023-01-01T06:26:15.268Z,8.40
2023-01-01T06:28:42.942Z,8.40
2023-01-01T06:31:11.842Z,8.40
2023-01-01T06:33:39.251Z,8.50
2023-01-01T06:36:08.241Z,8.50
2023-01-01T06:38:36.371Z,8.50
2023-01-01T06:41:05.186Z,8.50
2023-01-01T06:43:33.105Z,8.50
2023-01-01T06:46:19.778Z,8.50
2023-01-01T06:48:48.369Z,8.50
2023-01-01T06:51:20.427Z,8.60
2023-01-01T06:53:48.424Z,8.50
2023-01-01T06:56:15.818Z,8.50
2023-01-01T06:58:43.014Z,8.50
2023-01-01T07:01:15.292Z,8.50
2023-01-01T07:03:42.747Z,8.40
2023-01-01T07:06:10.259Z,8.40
2023-01-01T07:08:37.483Z,8.40
2023-01-01T07:11:05.969Z,8.30
2023-01-01T07:13:33.238Z,8.30
2023-01-01T07:16:00.623Z,8.30
2023-01-01T07:18:27.924Z,8.30
2023-01-01T07:20:56.947Z,8.30
2023-01-01T07:23:24.872Z,8.40
2023-01-01T07:25:52.717Z,8.40
2023-01-01T07:28:20.112Z,8.40
2023-01-01T07:30:47.410Z,8.40
2023-01-01T07:33:18.740Z,8.30
2023-01-01T07:35:46.150Z,8.30
2023-01-01T07:38:14.142Z,8.30
2023-01-01T07:40:41.548Z,8.40
2023-01-01T07:43:09.818Z,8.40
2023-01-01T07:45:37.035Z,8.40
2023-01-01T07:48:04.343Z,8.50
2023-01-01T07:50:32.172Z,8.60
2023-01-01T07:52:59.417Z,8.60
2023-01-01T07:55:27.081Z,8.60
2023-01-01T07:57:54.311Z,8.70
2023-01-01T08:00:22.066Z,8.80
2023-01-01T08:02:49.417Z,8.90
2023-01-01T08:05:22.666Z,9.00
2023-01-01T08:07:53.432Z,9.10
2023-01-01T08:10:20.739Z,9.30
2023-01-01T08:12:47.992Z,9.40
2023-01-01T08:15:15.422Z,9.50
2023-01-01T08:17:46.599Z,9.60
2023-01-01T08:20:14.669Z,9.70
2023-01-01T08:22:41.985Z,9.80
2023-01-01T08:25:09.535Z,9.90
2023-01-01T08:27:38.070Z,10.00
2023-01-01T08:30:05.825Z,10.10
2023-01-01T08:32:33.036Z,10.20
2023-01-01T08:35:00.213Z,10.30
2023-01-01T08:37:27.443Z,10.40
2023-01-01T08:39:54.635Z,10.50
2023-01-01T08:42:21.838Z,10.60
2023-01-01T08:44:49.032Z,10.80
2023-01-01T08:47:21.232Z,11.00
2023-01-01T08:49:48.613Z,11.20
2023-01-01T08:52:16.106Z,11.30
2023-01-01T08:54:43.334Z,11.40
2023-01-01T08:57:10.832Z,11.50
2023-01-01T08:59:38.075Z,11.60
2023-01-01T09:02:06.354Z,11.70
2023-01-01T09:04:34.077Z,11.90
2023-01-01T09:07:01.316Z,12.00
2023-01-01T09:09:31.651Z,12.10
2023-01-01T09:12:03.801Z,12.20
2023-01-01T09:14:31.182Z,12.20
2023-01-01T09:16:58.472Z,12.40
2023-01-01T09:19:25.887Z,12.40
2023-01-01T09:21:53.596Z,12.50
2023-01-01T09:24:20.831Z,12.50
2023-01-01T09:26:48.058Z,12.60
2023-01-01T09:29:20.468Z,12.70
2023-01-01T09:31:50.895Z,12.70
2023-01-01T09:34:18.316Z,12.80
2023-01-01T09:36:45.746Z,12.90
2023-01-01T09:39:14.456Z,13.20
2023-01-01T09:42:16.896Z,13.40
2023-01-01T09:44:50.592Z,13.70
2023-01-01T09:47:25.881Z,13.80
2023-01-01T09:49:53.147Z,13.90
2023-01-01T09:52:20.371Z,14.10
2023-01-01T09:54:58.067Z,14.20
2023-01-01T09:57:30.543Z,14.30
2023-01-01T09:59:59.422Z,14.40
2023-01-01T10:02:39.813Z,14.60
2023-01-01T10:05:29.036Z,14.60
2023-01-01T10:08:18.282Z,14.80
2023-01-01T10:11:09.687Z,14.90
2023-01-01T10:13:44.384Z,15.00
2023-01-01T10:16:27.196Z,15.20
2023-01-01T10:18:55.965Z,15.20
2023-01-01T10:21:32.293Z,15.30
2023-01-01T10:24:31.617Z,15.30
2023-01-01T10:26:59.056Z,15.40
2023-01-01T10:29:36.587Z,15.40
2023-01-01T10:32:17.469Z,15.50
2023-01-01T10:34:44.687Z,15.40
2023-01-01T10:37:11.880Z,15.50
2023-01-01T10:39:39.132Z,15.50
2023-01-01T10:42:06.365Z,15.60
2023-01-01T10:44:34.127Z,15.60
2023-01-01T10:47:28.728Z,15.70
2023-01-01T10:49:57.696Z,15.80
2023-01-01T10:52:35.843Z,15.80
2023-01-01T10:55:03.541Z,15.90
2023-01-01T10:57:32.092Z,15.90
2023-01-01T11:00:25.087Z,16.00
2023-01-01T11:03:19.560Z,16.10
2023-01-01T11:06:02.956Z,16.20
2023-01-01T11:08:31.278Z,16.20
2023-01-01T11:10:59.489Z,16.40
2023-01-01T11:13:28.150Z,16.40
2023-01-01T11:15:55.384Z,16.50
2023-01-01T11:18:25.285Z,16.60
2023-01-01T11:20:56.652Z,16.70
2023-01-01T11:23:32.101Z,16.70
2023-01-01T11:26:03.013Z,16.70
2023-01-01T11:28:31.843Z,16.80
2023-01-01T11:31:07.824Z,16.80
2023-01-01T11:33:46.597Z,16.80
2023-01-01T11:36:24.166Z,16.90
2023-01-01T11:39:04.814Z,16.90
2023-01-01T11:41:44.270Z,17.00
2023-01-01T11:44:12.110Z,17.00
2023-01-01T11:46:39.390Z,17.10
2023-01-01T11:49:14.552Z,17.00
2023-01-01T11:51:41.828Z,17.10
2023-01-01T11:54:18.013Z,17.10
2023-01-01T11:56:45.221Z,17.10
2023-01-01T11:59:15.293Z,17.20
2023-01-01T12:01:54.621Z,17.20
2023-01-01T12:04:43.044Z,17.40
2023-01-01T12:07:12.270Z,17.40
2023-01-01T12:10:02.567Z,17.50
2023-01-01T12:12:34.491Z,17.50
2023-01-01T12:15:22.839Z,17.50
2023-01-01T12:18:11.730Z,17.50
2023-01-01T12:20:42.893Z,17.50
2023-01-01T12:23:10.231Z,17.60
2023-01-01T12:25:41.782Z,17.70
2023-01-01T12:28:17.767Z,17.70
2023-01-01T12:31:15.550Z,17.70
2023-01-01T12:33:52.945Z,17.80
2023-01-01T12:36:55.977Z,17.80
2023-01-01T12:39:45.157Z,17.80
2023-01-01T12:42:41.074Z,17.80
2023-01-01T12:45:30.873Z,17.80
2023-01-01T12:48:16.713Z,17.80
2023-01-01T12:51:21.583Z,17.90
2023-01-01T12:53:57.724Z,17.80
2023-01-01T12:56:39.975Z,17.90
2023-01-01T12:59:17.962Z,17.90
2023-01-01T13:01:45.305Z,17.80
2023-01-01T13:04:19.627Z,17.80
2023-01-01T13:06:50.545Z,17.70
2023-01-01T13:09:18.506Z,17.70
2023-01-01T13:11:49.171Z,17.60
2023-01-01T13:14:18.106Z,17.60
2023-01-01T13:16:53.339Z,17.50
2023-01-01T13:19:25.751Z,17.50
2023-01-01T13:21:53.542Z,17.60
2023-01-01T13:24:22.635Z,17.50
2023-01-01T13:26:50.205Z,17.50
2023-01-01T13:29:20.600Z,17.50
2023-01-01T13:31:47.859Z,17.40
2023-01-01T13:34:30.483Z,17.40
2023-01-01T13:37:17.340Z,17.50
2023-01-01T13:39:52.893Z,17.50
2023-01-01T13:42:59.060Z,17.60
2023-01-01T13:46:11.164Z,17.50
2023-01-01T13:48:50.398Z,17.40
2023-01-01T13:55:08.219Z,17.40
2023-01-01T13:57:59.833Z,17.20
2023-01-01T14:00:50.327Z,17.20
2023-01-01T14:03:17.545Z,17.20
2023-01-01T14:05:52.538Z,17.20
2023-01-01T14:08:36.431Z,17.20
2023-01-01T14:11:17.679Z,17.10
2023-01-01T14:13:44.879Z,17.10
2023-01-01T14:16:14.455Z,17.10
2023-01-01T14:18:49.258Z,17.00
2023-01-01T14:21:21.451Z,16.90
2023-01-01T14:23:55.322Z,16.80
2023-01-01T14:26:24.367Z,16.70
2023-01-01T14:28:59.230Z,16.60
2023-01-01T14:31:27.688Z,16.60
2023-01-01T14:33:54.889Z,16.40
2023-01-01T14:36:23.747Z,16.30
2023-01-01T14:38:52.535Z,16.20
2023-01-01T14:41:36.550Z,16.00
2023-01-01T14:44:12.212Z,15.80
2023-01-01T14:46:43.864Z,15.70
2023-01-01T14:49:16.419Z,15.60
2023-01-01T14:51:45.581Z,15.60
2023-01-01T14:54:19.288Z,15.50
2023-01-01T14:56:47.623Z,15.40
2023-01-01T14:59:24.481Z,15.20
2023-01-01T15:02:14.408Z,15.10
2023-01-01T15:04:41.929Z,14.90
2023-01-01T15:07:26.535Z,14.90
2023-01-01T15:09:55.047Z,14.80
2023-01-01T15:12:22.671Z,14.70
2023-01-01T15:14:51.213Z,14.60
2023-01-01T15:17:20.253Z,14.50
2023-01-01T15:20:01.330Z,14.50
2023-01-01T15:22:38.826Z,14.40
2023-01-01T15:25:06.404Z,14.10
2023-01-01T15:27:34.700Z,14.00
2023-01-01T15:30:02.283Z,13.90
2023-01-01T15:32:31.855Z,13.80
2023-01-01T15:35:00.078Z,13.70
2023-01-01T15:37:32.496Z,13.70
2023-01-01T15:40:01.010Z,13.60
2023-01-01T15:42:28.167Z,13.60
2023-01-01T15:44:55.355Z,13.50
2023-01-01T15:47:26.768Z,13.40
2023-01-01T15:50:22.005Z,13.40
2023-01-01T15:52:55.428Z,13.30
2023-01-01T15:55:23.167Z,13.20
2023-01-01T15:57:50.653Z,13.10
2023-01-01T16:00:22.572Z,13.10
2023-01-01T16:02:51.464Z,12.90
2023-01-01T16:05:20.887Z,12.90
2023-01-01T16:07:48.111Z,12.80
2023-01-01T16:10:16.483Z,12.80
2023-01-01T16:12:43.708Z,12.70
2023-01-01T16:15:16.864Z,12.60
2023-01-01T16:17:44.085Z,12.50
2023-01-01T16:20:15.974Z,12.50
2023-01-01T16:22:43.559Z,12.40
2023-01-01T16:25:15.300Z,12.40
2023-01-01T16:27:42.737Z,12.40
2023-01-01T16:30:10.560Z,12.30
2023-01-01T16:32:37.848Z,12.20
2023-01-01T16:35:11.617Z,12.10
2023-01-01T16:37:39.264Z,12.10
2023-01-01T16:40:08.569Z,12.00
2023-01-01T16:42:35.845Z,11.90
2023-01-01T16:45:03.134Z,11.90
2023-01-01T16:47:30.324Z,11.90
2023-01-01T16:49:57.552Z,11.80
2023-01-01T16:52:27.655Z,11.80
2023-01-01T16:54:57.883Z,11.80
2023-01-01T16:57:25.147Z,11.70
2023-01-01T16:59:52.322Z,11.70
2023-01-01T17:02:19.680Z,11.60
2023-01-01T17:04:46.944Z,11.60
2023-01-01T17:07:14.151Z,11.50
2023-01-01T17:09:42.472Z,11.40
2023-01-01T17:12:09.676Z,11.30
2023-01-01T17:14:36.872Z,11.20
2023-01-01T17:17:04.094Z,11.20
2023-01-01T17:19:31.328Z,11.20
2023-01-01T17:21:58.770Z,11.20
2023-01-01T17:24:26.024Z,11.10
2023-01-01T17:26:54.224Z,11.00
2023-01-01T17:29:21.665Z,10.90
2023-01-01T17:31:48.893Z,10.90
2023-01-01T17:34:16.195Z,10.90
2023-01-01T17:36:44.012Z,10.90
2023-01-01T17:39:12.383Z,10.80
2023-01-01T17:41:40.142Z,10.80
2023-01-01T17:44:07.493Z,10.80
2023-01-01T17:46:34.916Z,10.80
2023-01-01T17:49:02.616Z,10.90
2023-01-01T17:51:29.895Z,10.90
2023-01-01T17:53:57.384Z,10.90
2023-01-01T17:56:24.770Z,10.90
2023-01-01T17:58:52.920Z,10.90
2023-01-01T18:01:23.276Z,10.90
2023-01-01T18:03:52.091Z,10.90
2023-01-01T18:06:19.306Z,10.80
2023-01-01T18:08:46.747Z,10.80
2023-01-01T18:11:14.100Z,10.80
2023-01-01T18:13:41.274Z,10.80
2023-01-01T18:16:08.956Z,10.80
2023-01-01T18:18:39.720Z,10.80
2023-01-01T18:21:11.764Z,10.70
2023-01-01T18:23:40.033Z,10.70
2023-01-01T18:26:09.136Z,10.70
2023-01-01T18:28:36.357Z,10.60
2023-01-01T18:31:07.416Z,10.60
2023-01-01T18:33:34.773Z,10.50
2023-01-01T18:36:09.541Z,10.50
2023-01-01T18:38:36.913Z,10.50
2023-01-01T18:41:29.226Z,10.50
2023-01-01T18:43:57.525Z,10.50
2023-01-01T18:46:24.787Z,10.40
2023-01-01T18:48:58.644Z,10.50
2023-01-01T18:51:26.656Z,10.50
2023-01-01T18:53:58.311Z,10.40
2023-01-01T18:56:25.679Z,10.40
2023-01-01T18:58:54.569Z,10.40
2023-01-01T19:01:22.778Z,10.40
2023-01-01T19:03:56.079Z,10.40
2023-01-01T19:06:27.790Z,10.40
2023-01-01T19:09:22.506Z,10.40
2023-01-01T19:11:50.543Z,10.50
2023-01-01T19:14:22.353Z,10.50
2023-01-01T19:16:51.030Z,10.50
2023-01-01T19:19:21.659Z,10.50
2023-01-01T19:21:52.091Z,10.50
2023-01-01T19:24:19.797Z,10.50
2023-01-01T19:26:47.193Z,10.40
2023-01-01T19:29:24.538Z,10.40
2023-01-01T19:31:53.234Z,10.40
2023-01-01T19:34:20.783Z,10.40
2023-01-01T19:36:48.364Z,10.40
2023-01-01T19:39:15.885Z,10.40
2023-01-01T19:41:43.961Z,10.40
2023-01-01T19:44:11.212Z,10.40
2023-01-01T19:46:39.384Z,10.30
2023-01-01T19:49:06.694Z,10.30
2023-01-01T19:51:33.981Z,10.20
2023-01-01T19:54:01.163Z,10.20
2023-01-01T19:56:28.413Z,10.20
2023-01-01T19:58:55.713Z,10.10
2023-01-01T20:01:22.970Z,10.10
2023-01-01T20:03:56.053Z,10.10
2023-01-01T20:06:24.790Z,10.00
2023-01-01T20:08:52.224Z,10.00
2023-01-01T20:11:20.507Z,9.90
2023-01-01T20:13:47.710Z,9.80
2023-01-01T20:16:15.159Z,9.80
2023-01-01T20:18:42.428Z,9.80
2023-01-01T20:21:28.007Z,9.80
2023-01-01T20:23:55.680Z,9.80
2023-01-01T20:26:25.366Z,9.80
2023-01-01T20:29:10.970Z,9.80
2023-01-01T20:31:38.232Z,9.80
2023-01-01T20:34:05.460Z,9.80
2023-01-01T20:36:50.997Z,9.80
2023-01-01T20:39:18.255Z,9.80
2023-01-01T20:41:45.469Z,9.80
2023-01-01T20:44:12.665Z,9.70
2023-01-01T20:46:41.122Z,9.70
2023-01-01T20:49:08.452Z,9.70
2023-01-01T20:51:35.690Z,9.70
2023-01-01T20:54:03.021Z,9.70
2023-01-01T20:56:30.461Z,9.70
2023-01-01T20:59:02.071Z,9.70
2023-01-01T21:01:39.782Z,9.60
2023-01-01T21:04:07.660Z,9.50
2023-01-01T21:06:34.880Z,9.50
2023-01-01T21:09:05.019Z,9.50
2023-01-01T21:11:33.215Z,9.40
2023-01-01T21:14:00.674Z,9.30
2023-01-01T21:16:31.528Z,9.20
2023-01-01T21:18:58.965Z,9.20
2023-01-01T21:21:31.063Z,9.10
2023-01-01T21:24:06.359Z,9.00
2023-01-01T21:26:35.856Z,8.90
2023-01-01T21:29:07.727Z,8.80
2023-01-01T21:31:42.620Z,8.80
2023-01-01T21:34:28.595Z,8.70
2023-01-01T21:37:00.369Z,8.70
2023-01-01T21:39:28.730Z,8.70
2023-01-01T21:42:20.327Z,8.60
2023-01-01T21:44:47.811Z,8.60
2023-01-01T21:47:22.398Z,8.50
2023-01-01T21:49:49.683Z,8.40
2023-01-01T21:52:19.790Z,8.40
2023-01-01T21:54:48.240Z,8.50
2023-01-01T21:57:19.801Z,8.50
2023-01-01T21:59:47.291Z,8.40
2023-01-01T22:02:14.672Z,8.40
2023-01-01T22:04:47.468Z,8.30
2023-01-01T22:10:21.705Z,8.30
2023-01-01T22:12:50.136Z,8.30
2023-01-01T22:15:26.652Z,8.30
2023-01-01T22:18:27.054Z,8.10
2023-01-01T22:20:54.381Z,8.00
2023-01-01T22:23:35.204Z,7.90
2023-01-01T22:26:24.087Z,7.90
2023-01-01T22:28:54.414Z,7.80
2023-01-01T22:31:26.059Z,7.60
2023-01-01T22:33:55.198Z,7.50
2023-01-01T22:36:29.199Z,7.50
2023-01-01T22:39:01.996Z,7.50
2023-01-01T22:41:29.177Z,7.50
2023-01-01T22:44:03.572Z,7.40
2023-01-01T22:46:38.690Z,7.40
2023-01-01T22:49:23.868Z,7.30
2023-01-01T22:51:51.697Z,7.20
2023-01-01T22:54:19.011Z,7.10
2023-01-01T22:56:46.251Z,7.00
2023-01-01T22:59:13.426Z,6.90
2023-01-01T23:01:40.745Z,6.90
2023-01-01T23:04:08.094Z,7.00
2023-01-01T23:06:35.411Z,7.00
2023-01-01T23:09:02.667Z,7.00
2023-01-01T23:11:29.920Z,7.00
2023-01-01T23:14:15.590Z,6.90
2023-01-01T23:16:42.775Z,6.90
2023-01-01T23:19:10.013Z,7.00
2023-01-01T23:21:37.699Z,6.90
2023-01-01T23:24:06.407Z,6.90
2023-01-01T23:26:33.585Z,6.90
2023-01-01T23:29:01.166Z,6.90
2023-01-01T23:31:28.413Z,6.80
2023-01-01T23:33:55.820Z,6.80
2023-01-01T23:36:24.299Z,6.70
2023-01-01T23:38:51.460Z,6.70
2023-01-01T23:41:18.686Z,6.70
2023-01-01T23:43:45.859Z,6.70
2023-01-01T23:46:13.257Z,6.70
2023-01-01T23:48:42.965Z,6.70
2023-01-01T23:51:10.205Z,6.60
2023-01-01T23:53:37.444Z,6.50
2023-01-01T23:56:04.916Z,6.30
2023-01-01T23:58:32.109Z,6.40
